createdAt,value
2023-05-24T00:00:53.363Z,101240.16
2023-05-24T00:02:03.882Z,101241.65
2023-05-24T00:03:07.168Z,101239.26
2023-05-24T00:04:11.281Z,101239.27
2023-05-24T00:05:14.975Z,101241.05
2023-05-24T00:06:18.685Z,101239.20
2023-05-24T00:07:21.544Z,101237.83
2023-05-24T00:08:24.563Z,101237.42
2023-05-24T00:09:27.270Z,101234.38
2023-05-24T00:10:29.984Z,101233.88
2023-05-24T00:11:32.825Z,101235.61
2023-05-24T00:12:36.205Z,101236.63
2023-05-24T00:13:39.757Z,101239.33
2023-05-24T00:14:42.612Z,101236.36
2023-05-24T00:15:45.320Z,101239.88
2023-05-24T00:16:48.260Z,101240.05
2023-05-24T00:17:51.858Z,101239.91
2023-05-24T00:18:55.011Z,101241.52
2023-05-24T00:19:58.321Z,101242.42
2023-05-24T00:21:01.277Z,101242.21
2023-05-24T00:22:04.458Z,101243.56
2023-05-24T00:23:08.219Z,101241.77
2023-05-24T00:24:11.489Z,101239.75
2023-05-24T00:25:14.346Z,101241.91
2023-05-24T00:26:22.778Z,101242.88
2023-05-24T00:27:29.188Z,101240.48
2023-05-24T00:28:32.410Z,101240.08
2023-05-24T00:29:35.377Z,101241.09
2023-05-24T00:30:38.344Z,101245.70
2023-05-24T00:31:41.198Z,101245.05
2023-05-24T00:32:44.026Z,101244.48
2023-05-24T00:33:46.766Z,101247.23
2023-05-24T00:34:49.664Z,101246.56
2023-05-24T00:35:56.429Z,101247.31
2023-05-24T00:36:59.144Z,101243.29
2023-05-24T00:38:02.411Z,101242.02
2023-05-24T00:39:05.192Z,101239.42
2023-05-24T00:40:08.538Z,101238.84
2023-05-24T00:41:11.721Z,101236.64
2023-05-24T00:42:14.508Z,101236.13
2023-05-24T00:43:17.369Z,101234.12
2023-05-24T00:44:20.229Z,101233.98
2023-05-24T00:45:24.616Z,101231.34
2023-05-24T00:46:28.880Z,101231.52
2023-05-24T00:47:31.835Z,101230.97
2023-05-24T00:48:35.122Z,101232.31
2023-05-24T00:49:38.171Z,101230.40
2023-05-24T00:50:41.985Z,101226.88
2023-05-24T00:51:44.924Z,101230.61
2023-05-24T00:52:47.970Z,101227.76
2023-05-24T00:53:50.863Z,101226.10
2023-05-24T00:54:53.742Z,101226.52
2023-05-24T00:55:56.641Z,101225.32
2023-05-24T00:56:59.430Z,101224.70
2023-05-24T00:58:02.682Z,101224.67
2023-05-24T00:59:05.919Z,101223.14
2023-05-24T01:00:09.578Z,101225.45
2023-05-24T01:01:12.778Z,101220.64
2023-05-24T01:02:21.227Z,101221.21
2023-05-24T01:03:24.508Z,101222.22
2023-05-24T01:04:28.138Z,101225.13
2023-05-24T01:05:30.941Z,101223.84
2023-05-24T01:06:44.970Z,101222.06
2023-05-24T01:07:47.813Z,101219.87
2023-05-24T01:08:50.562Z,101218.45
2023-05-24T01:10:03.409Z,101212.98
2023-05-24T01:11:11.728Z,101214.55
2023-05-24T01:12:20.685Z,101208.41
2023-05-24T01:13:33.699Z,101207.61
2023-05-24T01:14:42.574Z,101208.60
2023-05-24T01:16:27.591Z,101214.17
2023-05-24T01:18:57.292Z,101213.84
2023-05-24T01:20:08.966Z,101215.32
2023-05-24T01:21:16.569Z,101220.44
2023-05-24T01:22:36.032Z,101220.43
2023-05-24T01:23:51.241Z,101219.41
2023-05-24T01:25:02.162Z,101219.37
2023-05-24T01:26:18.482Z,101221.86
2023-05-24T01:27:22.883Z,101224.44
2023-05-24T01:28:27.541Z,101223.48
2023-05-24T01:29:31.295Z,101222.47
2023-05-24T01:31:29.418Z,101223.67
2023-05-24T01:32:32.899Z,101221.55
2023-05-24T01:33:35.861Z,101218.19
2023-05-24T01:34:38.611Z,101218.48
2023-05-24T01:35:42.524Z,101222.58
2023-05-24T01:36:45.678Z,101220.73
2023-05-24T01:37:48.486Z,101219.25
2023-05-24T01:38:51.655Z,101221.58
2023-05-24T01:39:55.137Z,101221.21
2023-05-24T01:41:01.570Z,101226.48
2023-05-24T01:42:07.210Z,101228.11
2023-05-24T01:43:12.832Z,101232.23
2023-05-24T01:44:29.182Z,101232.73
2023-05-24T01:45:43.911Z,101229.39
2023-05-24T01:46:50.454Z,101228.62
2023-05-24T01:48:03.187Z,101227.65
2023-05-24T02:02:06.038Z,101242.52
2023-05-24T02:03:09.004Z,101241.36
2023-05-24T02:04:12.304Z,101244.41
2023-05-24T02:05:15.040Z,101248.08
2023-05-24T02:06:17.781Z,101246.62
2023-05-24T02:07:20.931Z,101245.48
2023-05-24T02:08:23.596Z,101255.02
2023-05-24T02:09:27.684Z,101253.38
2023-05-24T02:10:30.543Z,101255.21
2023-05-24T02:11:33.291Z,101255.89
2023-05-24T02:12:36.384Z,101252.66
2023-05-24T02:13:39.100Z,101254.04
2023-05-24T02:14:42.797Z,101258.63
2023-05-24T02:15:46.560Z,101252.96
2023-05-24T02:16:50.789Z,101258.88
2023-05-24T02:17:55.123Z,101254.77
2023-05-24T02:18:58.027Z,101258.90
2023-05-24T02:20:01.092Z,101259.45
2023-05-24T02:21:04.276Z,101262.12
2023-05-24T02:22:07.393Z,101270.09
2023-05-24T02:23:10.396Z,101274.33
2023-05-24T02:24:13.215Z,101273.90
2023-05-24T02:25:16.409Z,101272.89
2023-05-24T02:26:19.521Z,101274.63
2023-05-24T02:27:22.221Z,101276.67
2023-05-24T02:28:25.275Z,101280.69
2023-05-24T02:29:28.267Z,101275.05
2023-05-24T02:30:31.041Z,101275.81
2023-05-24T02:31:33.922Z,101272.23
2023-05-24T02:32:37.234Z,101270.00
2023-05-24T02:33:40.673Z,101263.20
2023-05-24T02:34:44.192Z,101267.29
2023-05-24T02:35:46.928Z,101264.52
2023-05-24T02:36:49.991Z,101264.84
2023-05-24T02:37:53.393Z,101263.73
2023-05-24T02:38:56.997Z,101265.54
2023-05-24T02:39:59.749Z,101265.63
2023-05-24T02:41:02.778Z,101268.78
2023-05-24T02:42:05.902Z,101270.84
2023-05-24T02:43:09.793Z,101267.76
2023-05-24T02:44:12.857Z,101268.17
2023-05-24T02:45:15.838Z,101270.09
2023-05-24T02:46:18.827Z,101268.11
2023-05-24T02:47:21.541Z,101269.90
2023-05-24T02:48:24.295Z,101269.81
2023-05-24T02:49:27.448Z,101264.97
2023-05-24T02:50:30.308Z,101265.14
2023-05-24T02:51:33.479Z,101264.33
2023-05-24T02:52:36.338Z,101262.45
2023-05-24T02:53:39.658Z,101266.30
2023-05-24T02:54:42.617Z,101263.38
2023-05-24T02:55:46.712Z,101263.79
2023-05-24T02:56:49.886Z,101263.22
2023-05-24T02:57:54.021Z,101263.77
2023-05-24T02:58:56.776Z,101259.59
2023-05-24T03:00:00.114Z,101263.93
2023-05-24T03:01:02.896Z,101262.54
2023-05-24T03:02:05.825Z,101264.55
2023-05-24T03:03:08.800Z,101266.38
2023-05-24T03:04:11.770Z,101260.00
2023-05-24T03:05:14.723Z,101258.61
2023-05-24T03:06:17.541Z,101259.12
2023-05-24T03:07:22.047Z,101260.70
2023-05-24T03:08:24.804Z,101258.84
2023-05-24T03:09:27.810Z,101262.91
2023-05-24T03:10:31.149Z,101262.15
2023-05-24T03:11:33.921Z,101261.82
2023-05-24T03:12:36.776Z,101261.61
2023-05-24T03:13:40.208Z,101263.48
2023-05-24T03:14:43.009Z,101263.26
2023-05-24T03:15:46.712Z,101263.77
2023-05-24T03:16:49.869Z,101267.32
2023-05-24T03:17:52.691Z,101262.94
2023-05-24T03:18:56.514Z,101262.91
2023-05-24T03:19:59.363Z,101266.30
2023-05-24T03:21:02.650Z,101265.30
2023-05-24T03:22:05.656Z,101261.19
2023-05-24T03:23:09.743Z,101265.67
2023-05-24T03:24:13.294Z,101263.84
2023-05-24T03:25:16.550Z,101260.32
2023-05-24T03:26:20.489Z,101261.51
2023-05-24T03:27:23.293Z,101259.34
2023-05-24T03:28:27.535Z,101264.55
2023-05-24T03:29:30.589Z,101263.08
2023-05-24T03:30:33.537Z,101265.73
2023-05-24T03:31:36.578Z,101265.95
2023-05-24T03:32:39.497Z,101268.77
2023-05-24T03:33:42.438Z,101266.20
2023-05-24T03:34:45.319Z,101268.95
2023-05-24T03:35:48.039Z,101270.80
2023-05-24T03:36:51.163Z,101268.65
2023-05-24T03:37:54.232Z,101270.53
2023-05-24T03:38:58.512Z,101270.04
2023-05-24T03:40:04.594Z,101274.93
2023-05-24T03:41:16.486Z,101273.77
2023-05-24T03:42:19.876Z,101276.80
2023-05-24T03:43:22.586Z,101277.43
2023-05-24T03:44:31.634Z,101280.91
2023-05-24T03:45:39.894Z,101276.75
2023-05-24T03:46:43.289Z,101279.20
2023-05-24T03:47:46.682Z,101281.39
2023-05-24T03:48:49.790Z,101278.79
2023-05-24T03:49:52.620Z,101277.44
2023-05-24T03:50:55.507Z,101272.67
2023-05-24T03:51:58.344Z,101277.20
2023-05-24T03:53:01.271Z,101273.23
2023-05-24T03:54:04.044Z,101272.74
2023-05-24T03:55:06.958Z,101275.27
2023-05-24T03:56:09.663Z,101272.43
2023-05-24T03:57:12.565Z,101272.91
2023-05-24T03:58:15.445Z,101270.80
2023-05-24T03:59:18.169Z,101272.06
2023-05-24T04:00:21.232Z,101272.50
2023-05-24T04:01:33.352Z,101273.16
2023-05-24T04:02:38.276Z,101272.65
2023-05-24T04:03:41.555Z,101273.55
2023-05-24T04:04:44.949Z,101273.52
2023-05-24T04:05:49.298Z,101276.48
2023-05-24T04:06:53.871Z,101280.81
2023-05-24T04:07:56.809Z,101278.05
2023-05-24T04:09:00.214Z,101277.30
2023-05-24T04:10:06.646Z,101272.96
2023-05-24T04:11:09.389Z,101274.48
2023-05-24T04:12:13.398Z,101272.29
2023-05-24T04:13:17.672Z,101274.16
2023-05-24T04:14:20.643Z,101276.21
2023-05-24T04:15:24.032Z,101275.75
2023-05-24T04:16:27.575Z,101276.40
2023-05-24T04:17:34.935Z,101285.36
2023-05-24T04:18:38.018Z,101282.06
2023-05-24T04:19:41.052Z,101281.43
2023-05-24T04:20:44.129Z,101284.67
2023-05-24T04:21:47.119Z,101282.61
2023-05-24T04:22:49.996Z,101284.83
2023-05-24T04:23:52.753Z,101285.65
2023-05-24T04:24:55.635Z,101279.94
2023-05-24T04:25:58.492Z,101289.41
2023-05-24T04:27:01.297Z,101283.94
2023-05-24T04:28:04.113Z,101285.85
2023-05-24T04:29:07.833Z,101284.78
2023-05-24T04:30:12.021Z,101283.03
2023-05-24T04:31:16.439Z,101285.03
2023-05-24T04:32:19.924Z,101283.46
2023-05-24T04:33:23.397Z,101286.51
2023-05-24T04:34:26.188Z,101287.21
2023-05-24T04:35:30.191Z,101287.91
2023-05-24T04:36:33.968Z,101291.92
2023-05-24T04:37:36.700Z,101292.35
2023-05-24T04:38:40.847Z,101294.69
2023-05-24T04:39:46.858Z,101296.73
2023-05-24T04:40:49.857Z,101296.60
2023-05-24T04:41:53.430Z,101300.31
2023-05-24T04:42:56.222Z,101299.51
2023-05-24T04:44:01.851Z,101298.31
2023-05-24T04:45:04.715Z,101297.38
2023-05-24T04:46:09.399Z,101300.23
2023-05-24T04:47:12.956Z,101298.09
2023-05-24T04:48:15.658Z,101300.42
2023-05-24T04:49:18.347Z,101301.17
2023-05-24T04:50:21.025Z,101298.13
2023-05-24T04:51:23.965Z,101304.48
2023-05-24T04:52:26.760Z,101306.43
2023-05-24T04:53:29.581Z,101310.39
2023-05-24T04:54:32.829Z,101310.84
2023-05-24T04:55:35.933Z,101315.71
2023-05-24T04:56:39.306Z,101317.02
2023-05-24T04:57:42.068Z,101317.66
2023-05-24T04:58:44.903Z,101317.28
2023-05-24T04:59:47.616Z,101322.06
2023-05-24T05:00:50.459Z,101322.05
2023-05-24T05:01:53.315Z,101323.84
2023-05-24T05:02:56.234Z,101323.57
2023-05-24T05:03:59.553Z,101323.90
2023-05-24T05:05:02.245Z,101325.09
2023-05-24T05:06:05.007Z,101322.39
2023-05-24T05:07:08.287Z,101322.66
2023-05-24T05:08:10.984Z,101324.73
2023-05-24T05:09:14.807Z,101321.73
2023-05-24T05:10:17.672Z,101326.23
2023-05-24T05:11:20.664Z,101324.69
2023-05-24T05:12:23.547Z,101324.96
2023-05-24T05:13:26.364Z,101330.15
2023-05-24T05:14:29.308Z,101328.66
2023-05-24T05:15:32.681Z,101329.20
2023-05-24T05:16:36.598Z,101331.73
2023-05-24T05:17:39.678Z,101331.24
2023-05-24T05:18:42.416Z,101332.68
2023-05-24T05:19:45.237Z,101333.55
2023-05-24T05:20:48.080Z,101337.83
2023-05-24T05:21:50.923Z,101340.68
2023-05-24T05:22:53.836Z,101342.65
2023-05-24T05:23:56.630Z,101336.08
2023-05-24T05:25:00.116Z,101343.84
2023-05-24T05:26:02.967Z,101347.34
2023-05-24T05:27:06.218Z,101349.55
2023-05-24T05:28:09.078Z,101355.02
2023-05-24T05:29:11.765Z,101355.88
2023-05-24T05:30:14.627Z,101354.75
2023-05-24T05:31:17.321Z,101357.48
2023-05-24T05:32:20.107Z,101359.45
2023-05-24T05:33:23.027Z,101363.07
2023-05-24T05:34:25.877Z,101359.04
2023-05-24T05:35:28.677Z,101367.33
2023-05-24T05:36:32.359Z,101365.35
2023-05-24T05:37:35.107Z,101368.46
2023-05-24T05:38:37.902Z,101368.85
2023-05-24T05:39:41.024Z,101374.68
2023-05-24T05:40:44.192Z,101374.65
2023-05-24T05:41:47.232Z,101376.84
2023-05-24T05:42:50.106Z,101378.03
2023-05-24T05:43:52.807Z,101380.58
2023-05-24T05:44:55.554Z,101378.56
2023-05-24T05:45:58.330Z,101379.86
2023-05-24T05:47:01.111Z,101384.63
2023-05-24T05:48:03.979Z,101386.81
2023-05-24T05:49:06.944Z,101388.68
2023-05-24T05:50:09.845Z,101388.86
2023-05-24T05:51:12.795Z,101388.95
2023-05-24T05:52:15.678Z,101391.78
2023-05-24T05:53:18.440Z,101391.86
2023-05-24T05:54:21.392Z,101389.53
2023-05-24T05:55:24.485Z,101394.59
2023-05-24T05:56:27.806Z,101393.89
2023-05-24T05:57:30.558Z,101395.35
2023-05-24T05:58:33.561Z,101394.42
2023-05-24T05:59:36.423Z,101394.21
2023-05-24T06:00:40.467Z,101395.59
2023-05-24T06:01:44.000Z,101394.95
2023-05-24T06:02:46.792Z,101393.15
2023-05-24T06:03:51.001Z,101393.46
2023-05-24T06:04:54.130Z,101392.95
2023-05-24T06:05:57.031Z,101394.58
2023-05-24T06:06:59.888Z,101394.76
2023-05-24T06:08:03.386Z,101395.73
2023-05-24T06:09:07.868Z,101392.58
2023-05-24T06:10:11.013Z,101391.69
2023-05-24T06:11:14.078Z,101393.31
2023-05-24T06:12:16.852Z,101396.68
2023-05-24T06:13:19.536Z,101394.02
2023-05-24T06:14:22.377Z,101395.62
2023-05-24T06:15:25.408Z,101395.77
2023-05-24T06:16:28.749Z,101396.52
2023-05-24T06:17:31.582Z,101396.44
2023-05-24T06:18:34.633Z,101398.68
2023-05-24T06:19:37.380Z,101398.23
2023-05-24T06:20:40.370Z,101402.04
2023-05-24T06:21:47.804Z,101404.38
2023-05-24T06:22:50.862Z,101405.66
2023-05-24T06:23:53.610Z,101406.84
2023-05-24T06:24:56.347Z,101404.94
2023-05-24T06:25:59.151Z,101407.20
2023-05-24T06:27:03.311Z,101407.15
2023-05-24T06:28:07.955Z,101408.65
2023-05-24T06:29:10.655Z,101405.20
2023-05-24T06:30:13.919Z,101408.17
2023-05-24T06:31:16.850Z,101408.60
2023-05-24T06:32:19.556Z,101410.30
2023-05-24T06:33:22.597Z,101404.40
2023-05-24T06:34:25.716Z,101408.27
2023-05-24T06:35:28.510Z,101409.20
2023-05-24T06:36:34.266Z,101409.10
2023-05-24T06:37:38.634Z,101414.05
2023-05-24T06:38:41.618Z,101411.79
2023-05-24T06:39:44.388Z,101415.85
2023-05-24T06:40:47.243Z,101417.36
2023-05-24T06:41:51.456Z,101417.82
2023-05-24T06:42:58.769Z,101420.01
2023-05-24T06:44:01.695Z,101424.71
2023-05-24T06:45:04.564Z,101426.75
2023-05-24T06:46:07.764Z,101427.47
2023-05-24T06:47:10.668Z,101429.87
2023-05-24T06:48:13.503Z,101433.33
2023-05-24T06:49:16.340Z,101430.91
2023-05-24T06:50:19.518Z,101431.14
2023-05-24T06:51:22.590Z,101431.69
2023-05-24T06:52:25.462Z,101432.16
2023-05-24T06:53:28.145Z,101434.82
2023-05-24T06:54:31.096Z,101436.20
2023-05-24T06:55:33.787Z,101435.64
2023-05-24T06:56:36.561Z,101436.02
2023-05-24T06:57:39.431Z,101436.05
2023-05-24T06:58:42.203Z,101441.11
2023-05-24T06:59:45.056Z,101439.42
2023-05-24T07:00:48.045Z,101446.08
2023-05-24T07:01:53.961Z,101445.20
2023-05-24T07:02:57.377Z,101445.69
2023-05-24T07:04:00.210Z,101445.61
2023-05-24T07:05:03.073Z,101449.98
2023-05-24T07:06:06.101Z,101448.17
2023-05-24T07:07:09.625Z,101450.77
2023-05-24T07:08:12.349Z,101452.58
2023-05-24T07:09:15.059Z,101449.33
2023-05-24T07:10:17.820Z,101454.27
2023-05-24T07:11:20.686Z,101449.23
2023-05-24T07:12:23.752Z,101447.63
2023-05-24T07:13:26.716Z,101444.29
2023-05-24T07:14:29.407Z,101450.06
2023-05-24T07:15:32.150Z,101449.92
2023-05-24T07:16:34.929Z,101451.25
2023-05-24T07:17:37.726Z,101451.08
2023-05-24T07:18:41.894Z,101452.91
2023-05-24T07:19:45.161Z,101449.70
2023-05-24T07:20:48.192Z,101450.05
2023-05-24T07:21:51.365Z,101453.39
2023-05-24T07:22:54.095Z,101455.29
2023-05-24T07:23:57.033Z,101460.31
2023-05-24T07:24:59.846Z,101459.61
2023-05-24T07:26:03.083Z,101458.92
2023-05-24T07:27:05.844Z,101462.09
2023-05-24T07:28:08.628Z,101463.20
2023-05-24T07:29:11.409Z,101468.61
2023-05-24T07:30:27.893Z,101467.53
2023-05-24T07:31:35.407Z,101468.19
2023-05-24T07:32:38.493Z,101462.87
2023-05-24T07:33:41.348Z,101469.27
2023-05-24T07:34:44.220Z,101465.27
2023-05-24T07:35:51.379Z,101465.79
2023-05-24T07:36:54.214Z,101470.11
2023-05-24T07:37:57.008Z,101469.80
2023-05-24T07:39:01.390Z,101468.81
2023-05-24T07:40:05.698Z,101468.42
2023-05-24T07:41:08.452Z,101474.06
2023-05-24T07:42:11.137Z,101473.05
2023-05-24T07:43:13.917Z,101473.77
2023-05-24T07:44:16.657Z,101475.64
2023-05-24T07:45:19.817Z,101477.21
2023-05-24T07:46:22.596Z,101472.72
2023-05-24T07:47:25.608Z,101467.69
2023-05-24T07:48:28.442Z,101468.09
2023-05-24T07:49:31.215Z,101470.42
2023-05-24T07:50:34.126Z,101465.46
2023-05-24T07:51:37.038Z,101466.72
2023-05-24T07:52:39.837Z,101467.56
2023-05-24T07:53:42.579Z,101466.45
2023-05-24T07:54:45.512Z,101466.27
2023-05-24T07:55:48.436Z,101467.58
2023-05-24T07:56:51.786Z,101471.66
2023-05-24T07:57:54.581Z,101472.90
2023-05-24T07:59:03.492Z,101474.48
2023-05-24T08:00:14.788Z,101475.98
2023-05-24T08:01:20.782Z,101476.50
2023-05-24T08:02:24.367Z,101473.16
2023-05-24T08:03:27.472Z,101476.10
2023-05-24T08:04:31.071Z,101477.29
2023-05-24T08:05:33.945Z,101480.11
2023-05-24T08:06:37.020Z,101483.83
2023-05-24T08:07:40.664Z,101481.44
2023-05-24T08:08:43.472Z,101484.73
2023-05-24T08:09:46.360Z,101483.48
2023-05-24T08:10:49.198Z,101486.62
2023-05-24T08:11:51.992Z,101490.64
2023-05-24T08:12:56.201Z,101488.84
2023-05-24T08:14:00.253Z,101486.79
2023-05-24T08:15:05.137Z,101489.85
2023-05-24T08:16:08.119Z,101486.23
2023-05-24T08:17:11.000Z,101491.91
2023-05-24T08:18:13.873Z,101490.09
2023-05-24T08:19:16.837Z,101493.88
2023-05-24T08:20:19.656Z,101495.09
2023-05-24T08:21:22.601Z,101498.38
2023-05-24T08:22:25.966Z,101499.79
2023-05-24T08:23:30.006Z,101498.92
2023-05-24T08:24:32.834Z,101501.22
2023-05-24T08:25:36.210Z,101500.47
2023-05-24T08:26:39.001Z,101499.48
2023-05-24T08:27:41.949Z,101499.02
2023-05-24T08:28:44.666Z,101500.41
2023-05-24T08:29:47.377Z,101496.25
2023-05-24T08:30:50.188Z,101499.17
2023-05-24T08:31:53.068Z,101499.85
2023-05-24T08:32:56.172Z,101499.17
2023-05-24T08:33:59.532Z,101499.47
2023-05-24T08:35:18.565Z,101500.27
2023-05-24T08:36:22.833Z,101501.73
2023-05-24T08:37:25.744Z,101504.50
2023-05-24T08:38:29.478Z,101508.77
2023-05-24T08:39:32.363Z,101504.30
2023-05-24T08:40:35.204Z,101507.91
2023-05-24T08:41:38.878Z,101506.96
2023-05-24T08:42:41.710Z,101510.55
2023-05-24T08:43:46.167Z,101507.95
2023-05-24T08:44:53.399Z,101510.15
2023-05-24T08:45:58.149Z,101513.14
2023-05-24T08:47:01.266Z,101509.92
2023-05-24T08:48:05.616Z,101509.92
2023-05-24T08:49:12.558Z,101510.02
2023-05-24T08:50:15.505Z,101511.73
2023-05-24T08:51:18.323Z,101515.96
2023-05-24T08:52:21.463Z,101514.79
2023-05-24T08:53:24.717Z,101518.37
2023-05-24T08:54:27.487Z,101515.30
2023-05-24T08:55:33.622Z,101519.92
2023-05-24T08:56:37.066Z,101517.83
2023-05-24T08:57:41.265Z,101521.48
2023-05-24T08:58:45.415Z,101520.45
2023-05-24T08:59:48.436Z,101521.60
2023-05-24T09:00:51.089Z,101522.21
2023-05-24T09:01:54.608Z,101520.93
2023-05-24T09:02:58.904Z,101528.74
2023-05-24T09:04:03.026Z,101527.21
2023-05-24T09:05:08.494Z,101526.34
2023-05-24T09:06:12.187Z,101529.14
2023-05-24T09:07:17.773Z,101528.87
2023-05-24T09:08:20.713Z,101526.93
2023-05-24T09:09:27.348Z,101526.00
2023-05-24T09:10:45.020Z,101531.28
2023-05-24T09:11:57.154Z,101527.42
2023-05-24T09:13:02.366Z,101529.15
2023-05-24T09:14:05.232Z,101530.74
2023-05-24T09:15:08.988Z,101528.85
2023-05-24T09:16:12.207Z,101528.79
2023-05-24T09:17:15.960Z,101530.48
2023-05-24T09:18:18.846Z,101530.42
2023-05-24T09:19:21.719Z,101536.31
2023-05-24T09:20:24.631Z,101534.68
2023-05-24T09:21:27.841Z,101533.75
2023-05-24T09:22:30.976Z,101533.37
2023-05-24T09:23:34.261Z,101533.02
2023-05-24T09:24:41.071Z,101537.38
2023-05-24T09:25:47.298Z,101536.70
2023-05-24T09:26:51.129Z,101540.09
2023-05-24T09:27:54.014Z,101536.88
2023-05-24T09:28:57.707Z,101535.09
2023-05-24T09:30:01.683Z,101535.70
2023-05-24T09:31:07.411Z,101539.69
2023-05-24T09:32:11.191Z,101538.92
2023-05-24T09:33:14.068Z,101542.70
2023-05-24T09:34:17.310Z,101541.80
2023-05-24T09:35:20.059Z,101543.04
2023-05-24T09:36:22.843Z,101544.73
2023-05-24T09:37:31.097Z,101542.08
2023-05-24T09:38:36.638Z,101543.02
2023-05-24T09:39:43.032Z,101546.89
2023-05-24T09:40:45.830Z,101544.65
2023-05-24T09:41:57.888Z,101545.69
2023-05-24T09:43:09.233Z,101546.20
2023-05-24T09:44:14.399Z,101549.80
2023-05-24T09:45:17.530Z,101550.56
2023-05-24T09:46:21.691Z,101553.23
2023-05-24T09:47:28.489Z,101555.91
2023-05-24T09:48:31.985Z,101559.19
2023-05-24T09:49:37.121Z,101560.33
2023-05-24T09:50:40.418Z,101556.15
2023-05-24T09:51:43.775Z,101560.38
2023-05-24T09:52:46.630Z,101561.08
2023-05-24T09:53:52.379Z,101560.91
2023-05-24T09:54:55.577Z,101562.81
2023-05-24T09:55:58.402Z,101562.59
2023-05-24T09:57:03.527Z,101566.83
2023-05-24T09:58:08.584Z,101563.80
2023-05-24T09:59:11.745Z,101566.50
2023-05-24T10:00:16.228Z,101569.08
2023-05-24T10:01:22.648Z,101571.01
2023-05-24T10:02:26.012Z,101567.02
2023-05-24T10:03:28.971Z,101572.16
2023-05-24T10:04:34.955Z,101572.09
2023-05-24T10:05:38.633Z,101572.16
2023-05-24T10:06:43.037Z,101571.59
2023-05-24T10:07:46.321Z,101569.73
2023-05-24T10:08:49.521Z,101570.83
2023-05-24T10:09:52.603Z,101568.13
2023-05-24T10:10:56.207Z,101566.57
2023-05-24T10:11:59.796Z,101572.30
2023-05-24T10:13:02.869Z,101569.55
2023-05-24T10:14:07.189Z,101564.31
2023-05-24T10:15:10.898Z,101569.20
2023-05-24T10:16:13.784Z,101566.35
2023-05-24T10:17:16.723Z,101567.88
2023-05-24T10:18:19.979Z,101568.16
2023-05-24T10:19:23.467Z,101570.44
2023-05-24T10:20:26.888Z,101569.30
2023-05-24T10:21:31.640Z,101568.44
2023-05-24T10:22:37.423Z,101568.41
2023-05-24T10:23:42.404Z,101569.39
2023-05-24T10:24:47.122Z,101567.67
2023-05-24T10:25:51.570Z,101571.88
2023-05-24T10:26:55.600Z,101572.92
2023-05-24T10:28:00.665Z,101571.77
2023-05-24T10:29:06.791Z,101570.59
2023-05-24T10:30:14.259Z,101571.15
2023-05-24T10:31:29.860Z,101572.15
2023-05-24T10:32:34.958Z,101578.99
2023-05-24T10:33:38.417Z,101575.02
2023-05-24T10:34:42.859Z,101578.83
2023-05-24T10:35:46.000Z,101576.59
2023-05-24T10:36:49.005Z,101576.27
2023-05-24T10:37:52.459Z,101580.66
2023-05-24T10:38:56.117Z,101575.13
2023-05-24T10:39:59.464Z,101575.53
2023-05-24T10:41:02.689Z,101574.73
2023-05-24T10:42:09.394Z,101576.93
2023-05-24T10:43:12.700Z,101576.10
2023-05-24T10:44:18.599Z,101576.23
2023-05-24T10:45:27.430Z,101578.17
2023-05-24T10:46:32.891Z,101578.94
2023-05-24T10:47:39.059Z,101578.64
2023-05-24T10:48:42.541Z,101578.84
2023-05-24T10:49:57.819Z,101578.05
2023-05-24T10:51:23.828Z,101575.85
2023-05-24T10:52:36.328Z,101577.04
2023-05-24T10:53:40.308Z,101575.65
2023-05-24T10:55:06.202Z,101572.36
2023-05-24T10:56:09.508Z,101578.29
2023-05-24T10:57:12.383Z,101577.59
2023-05-24T10:58:15.708Z,101579.80
2023-05-24T10:59:28.814Z,101578.05
2023-05-24T11:00:35.806Z,101576.46
2023-05-24T11:01:39.179Z,101580.21
2023-05-24T11:02:42.007Z,101584.12
2023-05-24T11:03:45.240Z,101583.08
2023-05-24T11:04:49.298Z,101587.67
2023-05-24T11:05:54.490Z,101585.36
2023-05-24T11:07:01.572Z,101582.87
2023-05-24T11:08:07.045Z,101584.79
2023-05-24T11:09:10.748Z,101585.58
2023-05-24T11:10:19.273Z,101587.02
2023-05-24T11:11:28.596Z,101582.38
2023-05-24T11:12:38.670Z,101589.58
2023-05-24T11:13:41.647Z,101584.14
2023-05-24T11:14:51.517Z,101587.99
2023-05-24T11:15:54.866Z,101585.73
2023-05-24T11:16:58.194Z,101589.08
2023-05-24T11:18:07.205Z,101590.95
2023-05-24T11:19:21.182Z,101589.49
2023-05-24T11:20:24.148Z,101587.50
2023-05-24T11:21:27.917Z,101588.24
2023-05-24T11:22:31.642Z,101588.19
2023-05-24T11:23:37.991Z,101588.14
2023-05-24T11:24:41.942Z,101583.84
2023-05-24T11:25:47.197Z,101584.33
2023-05-24T11:26:50.267Z,101584.93
2023-05-24T11:27:53.561Z,101584.39
2023-05-24T11:28:57.266Z,101584.49
2023-05-24T11:30:01.069Z,101588.51
2023-05-24T11:31:08.061Z,101584.55
2023-05-24T11:32:14.753Z,101586.89
2023-05-24T11:33:18.854Z,101593.70
2023-05-24T11:34:22.030Z,101590.73
2023-05-24T11:35:30.533Z,101586.52
2023-05-24T11:36:33.560Z,101590.17
2023-05-24T11:37:46.049Z,101592.25
2023-05-24T11:38:50.093Z,101597.49
2023-05-24T11:39:53.228Z,101595.55
2023-05-24T11:40:58.240Z,101596.28
2023-05-24T11:42:04.096Z,101595.98
2023-05-24T11:43:07.182Z,101596.93
2023-05-24T11:44:10.856Z,101594.63
2023-05-24T11:45:14.672Z,101595.81
2023-05-24T11:46:19.383Z,101590.40
2023-05-24T11:47:25.124Z,101588.88
2023-05-24T11:48:29.183Z,101588.90
2023-05-24T11:49:32.046Z,101589.56
2023-05-24T11:50:49.535Z,101590.59
2023-05-24T11:51:57.037Z,101592.45
2023-05-24T11:53:03.791Z,101588.19
2023-05-24T11:54:06.933Z,101587.47
2023-05-24T11:55:16.633Z,101590.98
2023-05-24T11:56:21.616Z,101589.84
2023-05-24T11:57:29.615Z,101589.34
2023-05-24T11:58:39.792Z,101586.46
2023-05-24T11:59:42.674Z,101584.79
2023-05-24T12:00:47.098Z,101583.73
2023-05-24T12:01:51.563Z,101583.45
2023-05-24T12:03:01.761Z,101586.89
2023-05-24T12:04:09.750Z,101580.78
2023-05-24T12:05:14.532Z,101586.52
2023-05-24T12:06:18.133Z,101584.42
2023-05-24T12:07:23.828Z,101585.77
2023-05-24T12:08:26.791Z,101585.82
2023-05-24T12:09:29.539Z,101591.72
2023-05-24T12:10:33.479Z,101590.18
2023-05-24T12:11:43.486Z,101592.31
2023-05-24T12:12:46.952Z,101590.98
2023-05-24T12:13:49.964Z,101593.45
2023-05-24T12:14:55.169Z,101592.08
2023-05-24T12:15:58.511Z,101588.04
2023-05-24T12:17:01.438Z,101592.27
2023-05-24T12:18:04.288Z,101591.88
2023-05-24T12:19:13.938Z,101592.21
2023-05-24T12:20:20.610Z,101592.08
2023-05-24T12:21:23.745Z,101592.77
2023-05-24T12:22:28.321Z,101594.12
2023-05-24T12:23:32.804Z,101591.02
2023-05-24T12:24:35.750Z,101592.18
2023-05-24T12:25:38.618Z,101591.44
2023-05-24T12:26:43.211Z,101592.42
2023-05-24T12:27:48.163Z,101588.58
2023-05-24T12:28:55.170Z,101586.92